createdAt,value
2018-04-18T00:00:03.717Z,69.25
2018-04-18T00:02:31.141Z,69.26
2018-04-18T00:04:58.575Z,69.04
2018-04-18T00:07:26.012Z,69.78
2018-04-18T00:09:53.449Z,69.60
2018-04-18T00:12:20.880Z,70.59
2018-04-18T00:14:48.304Z,69.93
2018-04-18T00:17:16.249Z,70.09
2018-04-18T00:19:43.780Z,70.41
2018-04-18T00:22:11.192Z,70.88
2018-04-18T00:24:38.651Z,70.67
2018-04-18T00:27:06.080Z,70.28
2018-04-18T00:29:33.514Z,70.57
2018-04-18T00:32:01.150Z,70.86
2018-04-18T00:34:28.658Z,71.00
2018-04-18T00:36:56.100Z,70.88
2018-04-18T00:39:23.517Z,70.89
2018-04-18T00:41:51.764Z,71.80
2018-04-18T00:44:19.185Z,72.68
2018-04-18T00:46:46.769Z,71.95
2018-04-18T00:49:14.977Z,72.93
2018-04-18T00:51:42.407Z,72.06
2018-04-18T00:54:09.859Z,72.39
2018-04-18T00:56:37.299Z,72.36
2018-04-18T00:59:04.860Z,72.95
2018-04-18T01:01:32.290Z,73.63
2018-04-18T01:03:59.713Z,73.00
2018-04-18T01:06:27.140Z,73.99
2018-04-18T01:08:54.564Z,74.01
2018-04-18T01:11:22.024Z,73.47
2018-04-18T01:13:49.454Z,73.54
2018-04-18T01:16:16.888Z,73.65
2018-04-18T01:18:44.399Z,73.63
2018-04-18T01:21:11.807Z,73.44
2018-04-18T01:23:39.215Z,74.11
2018-04-18T01:26:06.644Z,73.99
2018-04-18T01:28:34.094Z,74.42
2018-04-18T01:31:01.526Z,74.35
2018-04-18T01:33:29.029Z,74.84
2018-04-18T01:35:56.461Z,75.12
2018-04-18T01:38:23.888Z,75.18
2018-04-18T01:40:51.336Z,74.97
2018-04-18T01:43:18.750Z,74.84
2018-04-18T01:45:46.186Z,75.16
2018-04-18T01:48:13.624Z,75.01
2018-04-18T01:50:41.061Z,75.01
2018-04-18T01:53:08.492Z,74.66
2018-04-18T01:55:35.930Z,74.79
2018-04-18T01:58:03.369Z,74.66
2018-04-18T02:00:30.813Z,75.05
2018-04-18T02:02:58.300Z,74.74
2018-04-18T02:05:25.729Z,75.18
2018-04-18T02:07:53.189Z,75.59
2018-04-18T02:10:20.663Z,75.05
2018-04-18T02:12:48.103Z,75.36
2018-04-18T02:15:15.580Z,75.65
2018-04-18T02:17:43.024Z,75.61
2018-04-18T02:20:10.453Z,76.90
2018-04-18T02:22:37.865Z,76.37
2018-04-18T02:25:05.342Z,76.11
2018-04-18T02:27:32.838Z,75.97
2018-04-18T02:30:00.442Z,76.06
2018-04-18T02:32:27.841Z,76.00
2018-04-18T02:34:55.260Z,76.46
2018-04-18T02:37:22.768Z,75.68
2018-04-18T02:39:50.196Z,75.84
2018-04-18T02:42:17.684Z,75.54
2018-04-18T02:44:45.407Z,75.78
2018-04-18T02:47:12.875Z,75.83
2018-04-18T02:49:40.298Z,76.34
2018-04-18T02:52:07.735Z,76.70
2018-04-18T02:54:35.168Z,77.34
2018-04-18T02:57:02.928Z,77.14
2018-04-18T02:59:30.382Z,76.91
2018-04-18T03:01:57.810Z,76.33
2018-04-18T03:04:25.847Z,76.15
2018-04-18T03:06:53.302Z,76.08
2018-04-18T03:09:20.929Z,76.92
2018-04-18T03:11:48.377Z,76.58
2018-04-18T03:14:15.791Z,77.45
2018-04-18T03:16:43.214Z,76.75
2018-04-18T03:19:10.648Z,76.83
2018-04-18T03:21:38.065Z,76.85
2018-04-18T03:24:05.509Z,76.98
2018-04-18T03:26:33.044Z,77.20
2018-04-18T03:29:00.477Z,77.01
2018-04-18T03:31:27.901Z,76.40
2018-04-18T03:33:55.314Z,76.61
2018-04-18T03:36:22.750Z,76.81
2018-04-18T03:38:50.200Z,76.67
2018-04-18T03:41:17.683Z,76.87
2018-04-18T03:43:45.138Z,76.56
2018-04-18T03:46:12.644Z,76.83
2018-04-18T03:48:40.068Z,76.86
2018-04-18T03:51:07.691Z,76.84
2018-04-18T03:53:35.120Z,76.84
2018-04-18T03:56:02.566Z,78.23
2018-04-18T03:58:30.025Z,77.90
2018-04-18T04:00:57.456Z,78.67
2018-04-18T04:03:24.876Z,78.52
2018-04-18T04:05:52.297Z,78.29
2018-04-18T04:08:19.795Z,78.27
2018-04-18T04:10:47.209Z,78.29
2018-04-18T04:13:14.637Z,77.77
2018-04-18T04:15:42.180Z,77.18
2018-04-18T04:18:21.301Z,77.00
2018-04-18T04:21:00.402Z,77.33
2018-04-18T04:23:39.508Z,77.28
2018-04-18T04:26:06.942Z,77.14
2018-04-18T04:28:34.369Z,77.68
2018-04-18T04:31:01.785Z,78.04
2018-04-18T04:33:29.215Z,78.18
2018-04-18T04:35:56.628Z,78.37
2018-04-18T04:38:24.064Z,78.44
2018-04-18T04:40:51.527Z,79.57
2018-04-18T04:43:19.201Z,78.98
2018-04-18T04:45:46.607Z,78.31
2018-04-18T04:48:14.028Z,78.07
2018-04-18T04:50:41.471Z,77.67
2018-04-18T04:53:08.901Z,77.49
2018-04-18T04:55:36.333Z,76.97
2018-04-18T04:58:03.748Z,76.15
2018-04-18T05:00:31.239Z,75.28
2018-04-18T05:02:58.672Z,74.45
2018-04-18T05:05:26.085Z,73.43
2018-04-18T05:07:53.512Z,72.44
2018-04-18T05:10:20.960Z,70.84
2018-04-18T05:12:48.356Z,69.66
2018-04-18T05:15:15.768Z,68.73
2018-04-18T05:17:43.220Z,68.21
2018-04-18T05:20:10.636Z,67.73
2018-04-18T05:22:38.040Z,65.56
2018-04-18T05:25:05.481Z,65.38
2018-04-18T05:27:32.901Z,64.79
2018-04-18T05:30:00.332Z,63.95
2018-04-18T05:32:27.752Z,61.99
2018-04-18T05:34:55.190Z,58.87
2018-04-18T05:37:22.723Z,59.19
2018-04-18T05:39:50.124Z,57.89
2018-04-18T05:42:17.563Z,57.72
2018-04-18T05:44:45.017Z,57.02
2018-04-18T05:47:12.432Z,56.01
2018-04-18T05:49:39.853Z,56.32
2018-04-18T05:52:07.292Z,54.87
2018-04-18T05:54:34.765Z,54.27
2018-04-18T05:57:02.226Z,52.12
2018-04-18T05:59:29.669Z,51.16
2018-04-18T06:01:57.081Z,50.97
2018-04-18T06:04:24.526Z,48.97
2018-04-18T06:06:51.962Z,49.57
2018-04-18T06:09:19.397Z,46.84
2018-04-18T06:11:46.837Z,48.32
2018-04-18T06:14:14.273Z,47.11
2018-04-18T06:16:41.719Z,44.27
2018-04-18T06:19:09.214Z,44.64
2018-04-18T06:21:36.581Z,44.47
2018-04-18T06:24:04.028Z,43.47
2018-04-18T06:26:31.473Z,44.28
2018-04-18T06:28:58.909Z,44.55
2018-04-18T06:31:26.480Z,42.95
2018-04-18T06:33:53.916Z,43.42
2018-04-18T06:36:21.344Z,43.09
2018-04-18T06:38:48.801Z,40.80
2018-04-18T06:41:16.239Z,42.33
2018-04-18T06:43:43.667Z,40.85
2018-04-18T06:46:11.129Z,40.68
2018-04-18T06:48:38.553Z,40.57
2018-04-18T06:51:06.086Z,40.07
2018-04-18T06:53:33.496Z,39.82
2018-04-18T06:56:00.922Z,38.85
2018-04-18T06:58:28.365Z,38.79
2018-04-18T07:00:55.786Z,37.65
2018-04-18T07:03:23.238Z,35.16
2018-04-18T07:05:50.659Z,37.45
2018-04-18T07:08:18.110Z,37.27
2018-04-18T07:10:45.545Z,36.01
2018-04-18T07:13:12.980Z,35.07
2018-04-18T07:15:40.408Z,35.00
2018-04-18T07:18:07.823Z,35.56
2018-04-18T07:20:35.270Z,34.23
2018-04-18T07:23:02.684Z,34.65
2018-04-18T07:25:30.132Z,33.84
2018-04-18T07:27:58.497Z,33.84
2018-04-18T07:30:26.116Z,34.50
2018-04-18T07:32:53.534Z,33.34
2018-04-18T07:35:21.056Z,33.17
2018-04-18T07:37:48.500Z,32.75
2018-04-18T07:40:15.936Z,31.01
2018-04-18T07:42:43.358Z,31.38
2018-04-18T07:45:10.777Z,31.42
2018-04-18T07:47:38.213Z,31.65
2018-04-18T07:50:05.694Z,32.18
2018-04-18T07:52:33.148Z,30.29
2018-04-18T07:55:00.649Z,30.88
2018-04-18T07:57:28.033Z,31.30
2018-04-18T07:59:55.444Z,29.88
2018-04-18T08:02:22.884Z,30.94
2018-04-18T08:04:50.309Z,31.41
2018-04-18T08:07:17.752Z,31.43
2018-04-18T08:09:45.175Z,30.09
2018-04-18T08:12:12.607Z,29.62
2018-04-18T08:14:40.034Z,30.39
2018-04-18T08:17:07.473Z,30.81
2018-04-18T08:19:34.895Z,30.53
2018-04-18T08:22:02.346Z,30.48
2018-04-18T08:24:29.771Z,29.69
2018-04-18T08:29:47.593Z,30.12
2018-04-18T08:32:15.032Z,30.99
2018-04-18T08:34:42.444Z,31.52
2018-04-18T08:37:09.874Z,31.12
2018-04-18T08:39:37.298Z,32.03
2018-04-18T08:42:04.741Z,31.93
2018-04-18T08:44:32.178Z,32.32
2018-04-18T08:46:59.601Z,32.43
2018-04-18T08:49:27.017Z,33.06
2018-04-18T08:51:54.436Z,33.11
2018-04-18T08:54:22.180Z,33.35
2018-04-18T08:56:49.614Z,33.19
2018-04-18T08:59:17.054Z,33.78
2018-04-18T09:01:44.452Z,34.00
2018-04-18T09:04:11.895Z,34.29
2018-04-18T09:06:39.313Z,34.01
2018-04-18T09:09:06.752Z,34.48
2018-04-18T09:11:34.176Z,34.58
2018-04-18T09:14:01.652Z,33.39
2018-04-18T09:16:29.065Z,33.73
2018-04-18T09:18:56.509Z,33.31
2018-04-18T09:21:23.951Z,33.79
2018-04-18T09:23:51.362Z,33.66
2018-04-18T09:26:18.784Z,33.86
2018-04-18T09:28:46.256Z,33.58
2018-04-18T09:31:13.725Z,32.92
2018-04-18T09:33:41.144Z,32.13
2018-04-18T09:36:08.563Z,32.84
2018-04-18T09:38:36.266Z,33.25
2018-04-18T09:41:03.711Z,34.74
2018-04-18T09:43:31.125Z,35.00
2018-04-18T09:45:58.556Z,35.15
2018-04-18T09:48:26.000Z,35.26
2018-04-18T09:50:53.451Z,35.54
2018-04-18T09:53:20.881Z,35.93
2018-04-18T09:55:48.360Z,35.97
2018-04-18T09:58:15.825Z,35.60
2018-04-18T10:00:49.166Z,35.79
2018-04-18T10:03:16.592Z,36.44
2018-04-18T10:05:44.055Z,36.69
2018-04-18T10:08:11.493Z,37.16
2018-04-18T10:10:39.751Z,37.30
2018-04-18T10:13:07.416Z,36.92
2018-04-18T10:15:34.899Z,36.97
2018-04-18T10:18:02.343Z,36.60
2018-04-18T10:20:29.878Z,37.03
2018-04-18T10:22:57.363Z,37.26
2018-04-18T10:25:24.755Z,36.94
2018-04-18T10:27:52.175Z,35.99
2018-04-18T10:30:19.602Z,35.56
2018-04-18T10:32:47.077Z,35.68
2018-04-18T10:35:14.519Z,36.29
2018-04-18T10:37:42.024Z,36.10
2018-04-18T10:40:09.476Z,36.33
2018-04-18T10:42:36.891Z,36.31
2018-04-18T10:45:04.312Z,36.08
2018-04-18T10:47:31.810Z,36.56
2018-04-18T10:49:59.268Z,37.17
2018-04-18T10:52:26.720Z,35.61
2018-04-18T10:54:54.275Z,36.48
2018-04-18T10:57:21.761Z,35.94
2018-04-18T10:59:49.241Z,36.38
2018-04-18T11:02:16.671Z,35.49
2018-04-18T11:04:44.132Z,35.34
2018-04-18T11:07:11.582Z,35.22
2018-04-18T11:09:39.042Z,35.73
2018-04-18T11:12:06.512Z,36.18
2018-04-18T11:14:33.958Z,35.30
2018-04-18T11:17:01.388Z,35.44
2018-04-18T11:19:28.812Z,35.82
2018-04-18T11:21:56.269Z,35.51
2018-04-18T11:24:23.707Z,35.93
2018-04-18T11:26:51.148Z,35.87
2018-04-18T11:29:18.583Z,35.68
2018-04-18T11:31:46.055Z,35.99
2018-04-18T11:34:13.498Z,36.45
2018-04-18T11:36:40.945Z,35.59
2018-04-18T11:39:08.437Z,36.15
2018-04-18T11:41:35.874Z,35.14
2018-04-18T11:44:03.283Z,35.37
2018-04-18T11:46:30.720Z,35.04
2018-04-18T11:48:58.157Z,35.00
2018-04-18T11:51:25.592Z,35.18
2018-04-18T11:53:53.034Z,35.72
2018-04-18T11:56:20.474Z,35.63
2018-04-18T11:58:47.912Z,35.55
2018-04-18T12:01:15.358Z,36.24
2018-04-18T12:03:42.801Z,35.69
2018-04-18T12:06:10.218Z,36.56
2018-04-18T12:08:37.654Z,36.85
2018-04-18T12:11:05.118Z,35.49
2018-04-18T12:13:32.529Z,35.29
2018-04-18T12:15:59.950Z,36.18
2018-04-18T12:18:27.374Z,36.19
2018-04-18T12:20:54.804Z,36.00
2018-04-18T12:23:22.364Z,36.13
2018-04-18T12:25:49.792Z,35.68
2018-04-18T12:28:17.249Z,36.24
2018-04-18T12:30:44.680Z,35.20
2018-04-18T12:33:12.112Z,35.38
2018-04-18T12:35:39.563Z,35.70
2018-04-18T12:38:07.009Z,34.63
2018-04-18T12:40:34.644Z,35.02
2018-04-18T12:43:02.097Z,35.93
2018-04-18T12:45:29.651Z,35.40
2018-04-18T12:47:57.084Z,34.97
2018-04-18T12:50:25.033Z,35.54
2018-04-18T12:52:52.453Z,35.70
2018-04-18T12:55:19.916Z,34.90
2018-04-18T12:57:48.036Z,35.52
2018-04-18T13:00:15.492Z,35.31
2018-04-18T13:02:43.032Z,34.98
2018-04-18T13:05:10.471Z,35.45
2018-04-18T13:07:40.528Z,35.62
2018-04-18T13:10:07.989Z,35.71
2018-04-18T13:12:35.427Z,35.55
2018-04-18T13:15:02.875Z,35.09
2018-04-18T13:17:30.336Z,34.86
2018-04-18T13:19:57.748Z,34.61
2018-04-18T13:22:25.244Z,34.94
2018-04-18T13:24:52.665Z,35.00
2018-04-18T13:27:20.089Z,35.23
2018-04-18T13:29:47.512Z,34.22
2018-04-18T13:32:14.933Z,34.54
2018-04-18T13:34:42.380Z,34.20
2018-04-18T13:37:09.789Z,34.59
2018-04-18T13:39:37.232Z,34.09
2018-04-18T13:42:04.659Z,34.49
2018-04-18T13:44:32.134Z,34.63
2018-04-18T13:46:59.564Z,34.68
2018-04-18T13:49:26.980Z,34.07
2018-04-18T13:51:54.411Z,34.69
2018-04-18T13:54:21.839Z,34.83
2018-04-18T13:56:53.784Z,33.71
2018-04-18T13:59:21.204Z,34.23
2018-04-18T14:01:48.642Z,34.40
2018-04-18T14:04:16.225Z,34.29
2018-04-18T14:06:43.642Z,34.72
2018-04-18T14:09:11.092Z,35.09
2018-04-18T14:11:38.619Z,34.35
2018-04-18T14:14:06.032Z,33.56
2018-04-18T14:16:33.469Z,33.43
2018-04-18T14:19:00.896Z,34.08
2018-04-18T14:21:28.327Z,34.12
2018-04-18T14:23:55.740Z,34.31
2018-04-18T14:26:23.190Z,34.42
2018-04-18T14:28:50.621Z,34.14
2018-04-18T14:31:18.309Z,34.36
2018-04-18T14:33:45.793Z,34.66
2018-04-18T14:36:13.225Z,33.96
2018-04-18T14:38:40.655Z,34.39
2018-04-18T14:41:08.091Z,34.09
2018-04-18T14:43:35.519Z,34.25
2018-04-18T14:46:02.939Z,34.55
2018-04-18T14:48:30.476Z,34.40
2018-04-18T14:50:58.810Z,33.75
2018-04-18T14:53:26.228Z,33.16
2018-04-18T14:55:53.668Z,33.12
2018-04-18T14:58:21.120Z,33.16
2018-04-18T15:00:48.678Z,33.15
2018-04-18T15:03:16.102Z,33.25
2018-04-18T15:05:43.710Z,33.35
2018-04-18T15:08:11.151Z,33.48
2018-04-18T15:10:38.589Z,33.47
2018-04-18T15:13:06.009Z,32.90
2018-04-18T15:15:33.435Z,33.03
2018-04-18T15:18:00.856Z,33.00
2018-04-18T15:20:28.322Z,32.37
2018-04-18T15:22:55.748Z,32.95
2018-04-18T15:25:23.194Z,33.24
2018-04-18T15:27:50.620Z,33.48
2018-04-18T15:30:18.052Z,32.31
2018-04-18T15:32:45.512Z,32.52
2018-04-18T15:35:12.939Z,33.13
2018-04-18T15:37:40.375Z,32.20
2018-04-18T15:40:07.788Z,32.09
2018-04-18T15:42:35.220Z,32.48
2018-04-18T15:45:02.659Z,32.29
2018-04-18T15:47:31.216Z,32.44
2018-04-18T15:49:58.663Z,32.50
2018-04-18T15:52:26.080Z,32.00
2018-04-18T15:54:53.495Z,31.74
2018-04-18T15:57:20.943Z,32.55
2018-04-18T15:59:48.356Z,32.56
2018-04-18T16:02:15.789Z,32.51
2018-04-18T16:04:43.222Z,32.03
2018-04-18T16:07:10.795Z,32.33
2018-04-18T16:09:38.241Z,32.10
2018-04-18T16:12:05.714Z,32.65
2018-04-18T16:14:33.227Z,32.46
2018-04-18T16:17:00.711Z,32.45
2018-04-18T16:19:28.150Z,31.92
2018-04-18T16:21:55.581Z,32.41
2018-04-18T16:24:23.014Z,32.23
2018-04-18T16:26:50.440Z,32.55
2018-04-18T16:29:29.604Z,32.56
2018-04-18T16:31:57.688Z,32.76
2018-04-18T16:34:25.172Z,32.32
2018-04-18T16:36:52.614Z,31.90
2018-04-18T16:39:20.033Z,31.61
2018-04-18T16:41:47.452Z,31.96
2018-04-18T16:44:14.892Z,32.13
2018-04-18T16:46:42.315Z,32.25
2018-04-18T16:49:09.810Z,32.07
2018-04-18T16:51:37.234Z,31.98
2018-04-18T16:54:04.689Z,31.34
2018-04-18T16:56:32.115Z,31.26
2018-04-18T16:58:59.563Z,31.88
2018-04-18T17:01:26.972Z,30.70
2018-04-18T17:03:54.390Z,30.64
2018-04-18T17:06:21.848Z,30.63
2018-04-18T17:08:49.267Z,30.12
2018-04-18T17:11:16.731Z,29.77
2018-04-18T17:13:44.151Z,29.73
2018-04-18T17:16:11.646Z,30.10
2018-04-18T17:18:39.073Z,30.34
2018-04-18T17:21:06.532Z,30.73
2018-04-18T17:23:33.966Z,30.53
2018-04-18T17:26:01.410Z,30.60
2018-04-18T17:28:28.852Z,29.96
2018-04-18T17:30:56.296Z,29.23
2018-04-18T17:33:23.708Z,29.98
2018-04-18T17:35:51.184Z,30.09
2018-04-18T17:38:18.647Z,30.10
2018-04-18T17:40:46.060Z,30.54
2018-04-18T17:43:13.481Z,30.63
2018-04-18T17:45:40.900Z,30.67
2018-04-18T17:48:08.321Z,30.69
2018-04-18T17:50:35.753Z,30.92
2018-04-18T17:53:03.160Z,31.04
2018-04-18T17:55:30.580Z,31.20
2018-04-18T17:57:58.019Z,31.49
2018-04-18T18:00:25.438Z,31.75
2018-04-18T18:02:52.851Z,32.02
2018-04-18T18:05:20.305Z,32.27
2018-04-18T18:07:47.708Z,32.47
2018-04-18T18:10:15.210Z,32.82
2018-04-18T18:12:42.620Z,33.34
2018-04-18T18:15:10.040Z,34.03
2018-04-18T18:17:37.481Z,34.73
2018-04-18T18:20:04.901Z,35.29
2018-04-18T18:22:32.336Z,36.27
2018-04-18T18:24:59.751Z,37.52
2018-04-18T18:27:27.192Z,37.33
2018-04-18T18:29:54.624Z,37.65
2018-04-18T18:32:22.177Z,38.69
2018-04-18T18:34:49.588Z,38.75
2018-04-18T18:37:17.016Z,39.75
2018-04-18T18:39:44.475Z,40.43
2018-04-18T18:42:11.957Z,40.79
2018-04-18T18:44:39.389Z,40.67
2018-04-18T18:47:06.816Z,41.70
2018-04-18T18:49:34.261Z,41.51
2018-04-18T18:52:01.684Z,41.57
2018-04-18T18:54:29.133Z,41.81
2018-04-18T18:56:56.548Z,42.04
2018-04-18T18:59:24.000Z,42.24
2018-04-18T19:01:51.427Z,42.43
2018-04-18T19:04:18.903Z,42.61
2018-04-18T19:06:46.316Z,42.96
2018-04-18T19:09:13.913Z,43.42
2018-04-18T19:11:41.332Z,43.59
2018-04-18T19:14:08.783Z,43.80
2018-04-18T19:16:36.229Z,44.06
2018-04-18T19:19:03.676Z,44.55
2018-04-18T19:21:31.132Z,44.63
2018-04-18T19:23:58.569Z,44.99
2018-04-18T19:26:26.227Z,45.27
2018-04-18T19:28:53.665Z,45.71
2018-04-18T19:31:21.109Z,45.87
2018-04-18T19:33:48.534Z,46.28
2018-04-18T19:36:15.960Z,46.72
2018-04-18T19:38:43.416Z,46.98
2018-04-18T19:41:10.845Z,47.17
2018-04-18T19:43:38.255Z,47.41
2018-04-18T19:46:05.989Z,47.69
2018-04-18T19:48:33.450Z,48.01
2018-04-18T19:51:00.902Z,48.14
2018-04-18T19:53:28.319Z,48.59
2018-04-18T19:55:55.728Z,48.83
2018-04-18T19:58:23.163Z,49.19
2018-04-18T20:00:50.585Z,49.36
2018-04-18T20:03:18.032Z,49.72
2018-04-18T20:05:45.514Z,49.91
2018-04-18T20:08:12.946Z,49.95
2018-04-18T20:10:40.396Z,50.06
2018-04-18T20:13:07.835Z,50.47
2018-04-18T20:15:35.354Z,50.72
2018-04-18T20:18:02.801Z,50.86
2018-04-18T20:20:30.257Z,51.14
2018-04-18T20:22:57.720Z,51.42
2018-04-18T20:25:25.196Z,51.39
2018-04-18T20:27:52.609Z,52.02
2018-04-18T20:30:20.055Z,53.02
2018-04-18T20:32:47.491Z,53.14
2018-04-18T20:35:14.963Z,53.40
2018-04-18T20:37:42.437Z,53.37
2018-04-18T20:40:09.891Z,53.35
2018-04-18T20:42:37.483Z,53.71
2018-04-18T20:45:05.025Z,54.02
2018-04-18T20:47:32.401Z,54.38
2018-04-18T20:49:59.840Z,55.05
2018-04-18T20:52:27.270Z,55.05
2018-04-18T20:54:54.716Z,55.30
2018-04-18T20:57:22.140Z,55.54
2018-04-18T20:59:49.586Z,56.91
2018-04-18T21:02:17.056Z,58.05
2018-04-18T21:04:44.468Z,58.55
2018-04-18T21:07:11.898Z,58.14
2018-04-18T21:09:39.327Z,57.67
2018-04-18T21:12:06.775Z,58.24
2018-04-18T21:14:34.232Z,58.89
2018-04-18T21:17:01.775Z,58.25
2018-04-18T21:19:29.200Z,58.38
2018-04-18T21:21:56.655Z,59.52
2018-04-18T21:24:24.121Z,59.14
2018-04-18T21:26:51.553Z,59.11
2018-04-18T21:29:18.980Z,59.77
2018-04-18T21:31:46.412Z,59.87
2018-04-18T21:34:13.832Z,60.56
2018-04-18T21:36:41.252Z,61.38
2018-04-18T21:39:08.721Z,61.32
2018-04-18T21:41:36.132Z,62.09
2018-04-18T21:44:03.700Z,62.06
2018-04-18T21:46:31.107Z,62.59
2018-04-18T21:48:58.524Z,62.25
2018-04-18T21:51:25.954Z,62.47
2018-04-18T21:53:53.364Z,63.27
2018-04-18T21:56:20.795Z,62.93
2018-04-18T21:58:48.209Z,63.22
2018-04-18T22:01:15.621Z,63.19
2018-04-18T22:03:43.049Z,66.50
2018-04-18T22:06:10.468Z,64.30
2018-04-18T22:08:37.896Z,64.78
2018-04-18T22:11:05.364Z,64.95
2018-04-18T22:13:32.780Z,64.56
2018-04-18T22:16:00.200Z,64.53
2018-04-18T22:18:27.632Z,64.68
2018-04-18T22:20:55.063Z,64.67
2018-04-18T22:23:22.480Z,64.64
2018-04-18T22:25:49.904Z,64.98
2018-04-18T22:28:17.315Z,66.13
2018-04-18T22:30:44.731Z,66.60
2018-04-18T22:33:12.160Z,65.93
2018-04-18T22:35:39.574Z,67.17
2018-04-18T22:38:07.004Z,66.66
2018-04-18T22:40:34.411Z,66.56
2018-04-18T22:43:01.940Z,67.42
2018-04-18T22:45:29.364Z,67.86
2018-04-18T22:47:56.796Z,67.79
2018-04-18T22:50:24.222Z,67.83
2018-04-18T22:52:51.628Z,67.36
2018-04-18T22:55:19.063Z,67.41
2018-04-18T22:57:46.468Z,67.39
2018-04-18T23:00:15.378Z,67.24
2018-04-18T23:02:42.809Z,67.31
2018-04-18T23:05:10.226Z,67.76
2018-04-18T23:07:37.652Z,67.82
2018-04-18T23:10:05.068Z,67.93
2018-04-18T23:12:32.496Z,68.57
2018-04-18T23:14:59.910Z,70.79
2018-04-18T23:17:27.343Z,69.72
2018-04-18T23:19:54.767Z,69.51
2018-04-18T23:22:34.021Z,69.03
2018-04-18T23:25:01.436Z,69.16
2018-04-18T23:27:28.870Z,69.23
2018-04-18T23:29:56.295Z,69.16
2018-04-18T23:32:23.724Z,68.99
2018-04-18T23:34:51.135Z,69.42
2018-04-18T23:37:18.573Z,69.57
2018-04-18T23:39:45.988Z,71.26
2018-04-18T23:42:13.403Z,70.73
2018-04-18T23:44:40.832Z,70.59
2018-04-18T23:47:08.281Z,70.75
2018-04-18T23:49:35.697Z,70.93
2018-04-18T23:52:03.293Z,70.89
2018-04-18T23:54:30.705Z,70.68
2018-04-18T23:56:58.119Z,70.62
2018-04-18T23:59:25.553Z,70.78
